createdAt,value
2019-05-30T00:00:18.502Z,27
2019-05-30T00:01:20.919Z,27
2019-05-30T00:02:23.331Z,27
2019-05-30T00:03:25.771Z,27
2019-05-30T00:04:28.211Z,27
2019-05-30T00:05:30.645Z,27
2019-05-30T00:06:33.076Z,27
2019-05-30T00:07:35.496Z,27
2019-05-30T00:08:37.945Z,27.1
2019-05-30T00:09:40.364Z,27.1
2019-05-30T00:10:42.788Z,27.1
2019-05-30T00:11:44.929Z,27.1
2019-05-30T00:12:47.088Z,27.1
2019-05-30T00:13:49.503Z,27.1
2019-05-30T00:14:51.985Z,27.1
2019-05-30T00:15:56.568Z,27.1
2019-05-30T00:17:01.461Z,27.1
2019-05-30T00:18:06.584Z,27.1
2019-05-30T00:19:09.009Z,27.1
2019-05-30T00:20:10.592Z,27.1
2019-05-30T00:21:13.033Z,27.1
2019-05-30T00:22:14.898Z,27.1
2019-05-30T00:23:17.322Z,27.1
2019-05-30T00:24:20.370Z,27.2
2019-05-30T00:25:23.401Z,27.1
2019-05-30T00:26:25.805Z,27.1
2019-05-30T00:27:27.955Z,27.2
2019-05-30T00:28:30.377Z,27.2
2019-05-30T00:29:32.803Z,27.2
2019-05-30T00:30:35.229Z,27.2
2019-05-30T00:31:37.654Z,27.2
2019-05-30T00:32:40.085Z,27.2
2019-05-30T00:33:42.517Z,27.2
2019-05-30T00:34:44.951Z,27.2
2019-05-30T00:35:47.374Z,27.2
2019-05-30T00:36:49.242Z,27.2
2019-05-30T00:37:51.673Z,27.2
2019-05-30T00:38:53.830Z,27.2
2019-05-30T00:39:59.854Z,27.2
2019-05-30T00:41:06.097Z,27.2
2019-05-30T00:42:08.623Z,27.2
2019-05-30T00:43:11.055Z,27.2
2019-05-30T00:44:13.483Z,27.1
2019-05-30T00:46:20.901Z,27.1
2019-05-30T00:47:22.781Z,27.1
2019-05-30T00:48:25.202Z,27
2019-05-30T00:49:27.627Z,27
2019-05-30T00:50:30.050Z,27
2019-05-30T00:51:32.479Z,27
2019-05-30T00:52:34.908Z,26.9
2019-05-30T00:53:37.334Z,26.9
2019-05-30T00:54:39.764Z,26.9
2019-05-30T00:55:41.917Z,26.9
2019-05-30T00:56:44.076Z,26.9
2019-05-30T00:57:46.526Z,26.9
2019-05-30T00:58:48.957Z,26.8
2019-05-30T00:59:51.379Z,26.8
2019-05-30T01:00:53.541Z,26.8
2019-05-30T01:01:57.103Z,26.8
2019-05-30T01:04:07.077Z,26.8
2019-05-30T01:05:09.364Z,26.7
2019-05-30T01:06:11.791Z,26.7
2019-05-30T01:07:13.983Z,26.7
2019-05-30T01:08:16.407Z,26.7
2019-05-30T01:09:18.568Z,26.7
2019-05-30T01:10:21.006Z,26.7
2019-05-30T01:11:23.439Z,26.6
2019-05-30T01:12:25.867Z,26.7
2019-05-30T01:13:28.285Z,26.6
2019-05-30T01:14:30.174Z,26.6
2019-05-30T01:15:32.603Z,26.6
2019-05-30T01:16:35.039Z,26.6
2019-05-30T01:17:37.193Z,26.6
2019-05-30T01:18:39.352Z,26.6
2019-05-30T01:19:41.779Z,26.6
2019-05-30T01:20:44.226Z,26.6
2019-05-30T01:21:46.654Z,26.6
2019-05-30T01:22:48.809Z,26.6
2019-05-30T01:23:50.984Z,26.6
2019-05-30T01:24:53.411Z,26.6
2019-05-30T01:25:57.230Z,26.6
2019-05-30T01:27:03.413Z,26.6
2019-05-30T01:28:08.387Z,26.6
2019-05-30T01:29:10.820Z,26.6
2019-05-30T01:30:13.255Z,26.5
2019-05-30T01:31:15.144Z,26.6
2019-05-30T01:32:17.749Z,26.5
2019-05-30T01:33:19.363Z,26.5
2019-05-30T01:34:21.798Z,26.5
2019-05-30T01:35:23.967Z,26.5
2019-05-30T01:36:26.103Z,26.5
2019-05-30T01:37:28.522Z,26.5
2019-05-30T01:38:31.137Z,26.5
2019-05-30T01:39:33.561Z,26.5
2019-05-30T01:40:35.994Z,26.5
2019-05-30T01:41:38.486Z,26.5
2019-05-30T01:42:40.638Z,26.5
2019-05-30T01:43:43.063Z,26.5
2019-05-30T01:44:45.236Z,26.5
2019-05-30T01:45:47.680Z,26.5
2019-05-30T01:46:49.576Z,26.5
2019-05-30T01:47:52.007Z,26.5
2019-05-30T01:48:54.431Z,26.5
2019-05-30T01:49:58.140Z,26.5
2019-05-30T01:51:02.875Z,26.5
2019-05-30T01:52:08.625Z,26.5
2019-05-30T01:53:11.277Z,26.5
2019-05-30T01:54:13.723Z,26.5
2019-05-30T01:55:16.135Z,26.5
2019-05-30T01:56:18.566Z,26.5
2019-05-30T01:57:21.000Z,26.5
2019-05-30T01:58:23.433Z,26.5
2019-05-30T01:59:25.657Z,26.5
2019-05-30T02:00:28.083Z,26.5
2019-05-30T02:01:30.516Z,26.5
2019-05-30T02:02:32.949Z,26.5
2019-05-30T02:03:34.831Z,26.5
2019-05-30T02:04:36.971Z,26.5
2019-05-30T02:05:38.282Z,26.5
2019-05-30T02:06:40.714Z,26.5
2019-05-30T02:07:43.144Z,26.5
2019-05-30T02:08:45.576Z,26.5
2019-05-30T02:09:47.741Z,26.5
2019-05-30T02:10:50.183Z,26.5
2019-05-30T02:11:52.617Z,26.5
2019-05-30T02:12:55.046Z,26.5
2019-05-30T02:13:57.494Z,26.5
2019-05-30T02:15:03.552Z,26.5
2019-05-30T02:16:08.360Z,26.5
2019-05-30T02:17:12.015Z,26.4
2019-05-30T02:18:14.431Z,26.4
2019-05-30T02:19:16.602Z,26.4
2019-05-30T02:20:18.205Z,26.4
2019-05-30T02:21:20.657Z,26.4
2019-05-30T02:22:23.077Z,26.4
2019-05-30T02:23:25.495Z,26.4
2019-05-30T02:24:27.925Z,26.4
2019-05-30T02:25:30.055Z,26.4
2019-05-30T02:26:32.204Z,26.4
2019-05-30T02:27:34.631Z,26.4
2019-05-30T02:28:36.848Z,26.4
2019-05-30T02:29:39.280Z,26.4
2019-05-30T02:30:40.892Z,26.4
2019-05-30T02:31:43.178Z,26.4
2019-05-30T02:32:45.326Z,26.4
2019-05-30T02:33:47.758Z,26.4
2019-05-30T02:34:49.918Z,26.4
2019-05-30T02:35:52.074Z,26.4
2019-05-30T02:36:54.482Z,26.4
2019-05-30T02:37:56.922Z,26.4
2019-05-30T02:39:00.721Z,26.4
2019-05-30T02:41:13.109Z,26.4
2019-05-30T02:42:14.982Z,26.4
2019-05-30T02:43:17.454Z,26.4
2019-05-30T02:44:19.611Z,26.4
2019-05-30T02:45:22.033Z,26.4
2019-05-30T02:46:23.913Z,26.4
2019-05-30T02:47:26.351Z,26.4
2019-05-30T02:48:28.777Z,26.4
2019-05-30T02:49:31.210Z,26.4
2019-05-30T02:50:33.624Z,26.4
2019-05-30T02:51:36.057Z,26.4
2019-05-30T02:52:38.214Z,26.4
2019-05-30T02:53:40.644Z,26.4
2019-05-30T02:54:42.826Z,26.4
2019-05-30T02:55:45.254Z,26.4
2019-05-30T02:56:47.418Z,26.4
2019-05-30T02:57:49.863Z,26.4
2019-05-30T02:58:52.005Z,26.4
2019-05-30T02:59:54.161Z,26.4
2019-05-30T03:00:56.415Z,26.4
2019-05-30T03:04:13.216Z,26.4
2019-05-30T03:05:16.147Z,26.4
2019-05-30T03:06:18.307Z,26.4
2019-05-30T03:07:20.745Z,26.4
2019-05-30T03:08:22.897Z,26.4
2019-05-30T03:09:25.328Z,26.4
2019-05-30T03:10:27.485Z,26.4
2019-05-30T03:11:29.932Z,26.4
2019-05-30T03:12:32.068Z,26.4
2019-05-30T03:13:34.524Z,26.4
2019-05-30T03:14:36.714Z,26.4
2019-05-30T03:15:38.853Z,26.4
2019-05-30T03:16:41.316Z,26.4
2019-05-30T03:17:43.748Z,26.4
2019-05-30T03:18:45.891Z,26.4
2019-05-30T03:19:48.320Z,26.4
2019-05-30T03:20:50.671Z,26.4
2019-05-30T03:21:53.843Z,26.4
2019-05-30T03:22:56.300Z,26.4
2019-05-30T03:23:58.732Z,26.4
2019-05-30T03:28:16.578Z,26.4
2019-05-30T03:29:19.009Z,26.4
2019-05-30T03:34:41.403Z,26.4
2019-05-30T03:35:45.465Z,26.4
2019-05-30T03:36:48.140Z,26.3
2019-05-30T03:37:50.593Z,26.4
2019-05-30T03:38:53.017Z,26.4
2019-05-30T03:39:55.446Z,26.3
2019-05-30T03:40:57.886Z,26.4
2019-05-30T03:42:00.307Z,26.4
2019-05-30T03:43:08.577Z,26.4
2019-05-30T03:44:16.676Z,26.4
2019-05-30T03:45:18.856Z,26.4
2019-05-30T03:46:21.288Z,26.4
2019-05-30T03:47:23.262Z,26.4
2019-05-30T03:48:25.702Z,26.4
2019-05-30T03:49:28.129Z,26.4
2019-05-30T03:50:30.300Z,26.4
2019-05-30T03:51:32.464Z,26.4
2019-05-30T03:52:34.894Z,26.4
2019-05-30T03:53:37.329Z,26.4
2019-05-30T03:54:39.463Z,26.4
2019-05-30T03:55:41.901Z,26.4
2019-05-30T03:56:44.350Z,26.4
2019-05-30T03:57:46.486Z,26.4
2019-05-30T03:58:48.934Z,26.4
2019-05-30T03:59:51.371Z,26.4
2019-05-30T04:00:53.798Z,26.4
2019-05-30T04:01:56.228Z,26.4
2019-05-30T04:03:00.329Z,26.4
2019-05-30T04:04:02.502Z,26.4
2019-05-30T04:05:06.395Z,26.4
2019-05-30T04:06:17.106Z,26.4
2019-05-30T04:07:21.023Z,26.4
2019-05-30T04:08:23.449Z,26.4
2019-05-30T04:09:26.404Z,26.3
2019-05-30T04:10:28.565Z,26.4
2019-05-30T04:11:30.998Z,26.4
2019-05-30T04:12:33.450Z,26.3
2019-05-30T04:13:35.877Z,26.3
2019-05-30T04:14:38.037Z,26.4
2019-05-30T04:15:40.224Z,26.3
2019-05-30T04:16:42.427Z,26.3
2019-05-30T04:17:44.856Z,26.3
2019-05-30T04:18:47.292Z,26.4
2019-05-30T04:19:49.428Z,26.3
2019-05-30T04:20:51.314Z,26.3
2019-05-30T04:21:53.269Z,26.3
2019-05-30T04:22:54.882Z,26.4
2019-05-30T04:23:57.312Z,26.3
2019-05-30T04:24:59.453Z,26.3
2019-05-30T04:26:02.243Z,26.3
2019-05-30T04:27:04.118Z,26.4
2019-05-30T04:28:09.624Z,26.3
2019-05-30T04:29:19.387Z,26.3
2019-05-30T04:30:21.812Z,26.4
2019-05-30T04:31:23.957Z,26.3
2019-05-30T04:32:26.396Z,26.3
2019-05-30T04:34:33.545Z,26.3
2019-05-30T04:35:35.711Z,26.3
2019-05-30T04:36:38.745Z,26.3
2019-05-30T04:37:41.178Z,26.3
2019-05-30T04:38:44.200Z,26.3
2019-05-30T04:39:46.633Z,26.3
2019-05-30T04:40:48.523Z,26.3
2019-05-30T04:41:50.943Z,26.3
2019-05-30T04:42:53.492Z,26.3
2019-05-30T04:43:55.911Z,26.3
2019-05-30T04:44:58.336Z,26.3
2019-05-30T04:45:59.974Z,26.3
2019-05-30T04:47:02.483Z,26.3
2019-05-30T04:48:04.629Z,26.3
2019-05-30T04:49:07.058Z,26.3
2019-05-30T04:50:16.161Z,26.3
2019-05-30T04:51:22.652Z,26.3
2019-05-30T04:52:26.002Z,26.3
2019-05-30T04:53:28.492Z,26.3
2019-05-30T04:54:30.665Z,26.3
2019-05-30T04:55:32.835Z,26.3
2019-05-30T04:56:34.997Z,26.3
2019-05-30T04:57:37.426Z,26.3
2019-05-30T04:59:44.579Z,26.3
2019-05-30T05:00:46.999Z,26.3
2019-05-30T05:01:48.892Z,26.3
2019-05-30T05:02:51.056Z,26.3
2019-05-30T05:03:53.467Z,26.3
2019-05-30T05:04:55.637Z,26.3
2019-05-30T05:05:58.080Z,26.3
2019-05-30T05:07:00.502Z,26.3
2019-05-30T05:08:02.657Z,26.3
2019-05-30T05:09:04.803Z,26.3
2019-05-30T05:10:07.242Z,26.3
2019-05-30T05:12:16.076Z,26.3
2019-05-30T05:13:22.983Z,26.3
2019-05-30T05:14:25.419Z,26.3
2019-05-30T05:15:27.863Z,26.3
2019-05-30T05:17:35.296Z,26.3
2019-05-30T05:18:37.721Z,26.3
2019-05-30T05:19:40.157Z,26.3
2019-05-30T05:20:42.594Z,26.3
2019-05-30T05:21:45.012Z,26.3
2019-05-30T05:22:46.918Z,26.3
2019-05-30T05:23:49.069Z,26.3
2019-05-30T05:24:51.500Z,26.3
2019-05-30T05:26:58.901Z,26.3
2019-05-30T05:28:01.337Z,26.3
2019-05-30T05:29:03.526Z,26.3
2019-05-30T05:30:05.708Z,26.3
2019-05-30T05:31:07.896Z,26.3
2019-05-30T05:32:10.356Z,26.3
2019-05-30T05:33:12.507Z,26.3
2019-05-30T05:34:18.532Z,26.3
2019-05-30T05:35:23.502Z,26.3
2019-05-30T05:36:26.935Z,26.3
2019-05-30T05:37:29.383Z,26.3
2019-05-30T05:38:31.832Z,26.3
2019-05-30T05:39:34.264Z,26.3
2019-05-30T05:40:36.152Z,26.3
2019-05-30T05:41:38.320Z,26.3
2019-05-30T05:42:41.378Z,26.3
2019-05-30T05:43:44.703Z,26.3
2019-05-30T05:44:47.151Z,26.3
2019-05-30T05:45:49.476Z,26.3
2019-05-30T05:46:51.917Z,26.3
2019-05-30T05:47:54.364Z,26.3
2019-05-30T05:48:56.827Z,26.3
2019-05-30T05:49:59.271Z,26.3
2019-05-30T05:51:01.427Z,26.3
2019-05-30T05:52:03.863Z,26.3
2019-05-30T05:53:06.284Z,26.3
2019-05-30T05:54:08.711Z,26.3
2019-05-30T05:55:11.138Z,26.3
2019-05-30T05:56:13.565Z,26.3
2019-05-30T05:57:17.214Z,26.3
2019-05-30T05:58:23.687Z,26.3
2019-05-30T05:59:29.223Z,26.3
2019-05-30T06:00:31.707Z,26.3
2019-05-30T06:01:34.324Z,26.3
2019-05-30T06:02:36.768Z,26.3
2019-05-30T06:03:38.927Z,26.3
2019-05-30T06:04:40.802Z,26.3
2019-05-30T06:06:47.955Z,26.3
2019-05-30T06:07:50.391Z,26.3
2019-05-30T06:08:52.543Z,26.3
2019-05-30T06:09:54.988Z,26.3
2019-05-30T06:10:57.147Z,26.3
2019-05-30T06:11:59.569Z,26.3
2019-05-30T06:13:02.006Z,26.3
2019-05-30T06:14:04.427Z,26.3
2019-05-30T06:15:06.967Z,26.3
2019-05-30T06:16:09.400Z,26.3
2019-05-30T06:17:11.831Z,26.3
2019-05-30T06:18:14.303Z,26.3
2019-05-30T06:19:19.003Z,26.3
2019-05-30T06:20:23.783Z,26.3
2019-05-30T06:21:28.486Z,26.3
2019-05-30T06:22:30.365Z,26.3
2019-05-30T06:23:32.808Z,26.3
2019-05-30T06:24:34.426Z,26.3
2019-05-30T06:25:36.870Z,26.3
2019-05-30T06:26:39.287Z,26.3
2019-05-30T06:27:41.424Z,26.3
2019-05-30T06:28:43.329Z,26.3
2019-05-30T06:29:45.756Z,26.3
2019-05-30T06:30:48.184Z,26.3
2019-05-30T06:31:50.543Z,26.3
2019-05-30T06:32:53.255Z,26.3
2019-05-30T06:33:55.409Z,26.3
2019-05-30T06:34:57.569Z,26.3
2019-05-30T06:36:00.132Z,26.3
2019-05-30T06:37:02.373Z,26.3
2019-05-30T06:38:04.652Z,26.3
2019-05-30T06:39:06.911Z,26.3
2019-05-30T06:40:09.088Z,26.3
2019-05-30T06:41:11.506Z,26.3
2019-05-30T06:42:13.392Z,26.3
2019-05-30T06:43:15.254Z,26.3
2019-05-30T06:44:18.245Z,26.3
2019-05-30T06:46:28.273Z,26.3
2019-05-30T06:47:31.356Z,26.2
2019-05-30T06:48:33.507Z,26.3
2019-05-30T06:49:35.958Z,26.3
2019-05-30T06:50:38.869Z,26.3
2019-05-30T06:51:41.317Z,26.2
2019-05-30T06:52:43.483Z,26.3
2019-05-30T06:53:45.898Z,26.3
2019-05-30T06:54:47.790Z,26.3
2019-05-30T06:55:49.964Z,26.2
2019-05-30T06:56:52.395Z,26.2
2019-05-30T06:57:54.822Z,26.2
2019-05-30T06:58:56.691Z,26.2
2019-05-30T06:59:59.114Z,26.2
2019-05-30T07:01:01.011Z,26.2
2019-05-30T07:02:03.444Z,26.2
2019-05-30T07:03:06.099Z,26.2
2019-05-30T07:04:09.231Z,26.2
2019-05-30T07:05:14.920Z,26.2
2019-05-30T07:06:20.536Z,26.2
2019-05-30T07:07:29.461Z,26.2
2019-05-30T07:08:34.871Z,26.2
2019-05-30T07:09:37.327Z,26.2
2019-05-30T07:10:39.748Z,26.2
2019-05-30T07:11:41.346Z,26.2
2019-05-30T07:12:43.773Z,26.2
2019-05-30T07:13:46.217Z,26.2
2019-05-30T07:14:48.431Z,26.2
2019-05-30T07:15:50.592Z,26.2
2019-05-30T07:16:53.030Z,26.2
2019-05-30T07:17:55.479Z,26.2
2019-05-30T07:18:57.907Z,26.2
2019-05-30T07:19:59.794Z,26.2
2019-05-30T07:21:02.231Z,26.2
2019-05-30T07:22:04.666Z,26.2
2019-05-30T07:23:07.165Z,26.2
2019-05-30T07:24:09.596Z,26.2
2019-05-30T07:25:12.026Z,26.2
2019-05-30T07:26:14.454Z,26.2
2019-05-30T07:27:16.339Z,26.2
2019-05-30T07:28:18.237Z,26.2
2019-05-30T07:29:20.667Z,26.2
2019-05-30T07:30:24.244Z,26.2
2019-05-30T07:31:30.176Z,26.2
2019-05-30T07:32:35.281Z,26.2
2019-05-30T07:33:37.539Z,26.2
2019-05-30T07:34:39.768Z,26.2
2019-05-30T07:35:41.944Z,26.3
2019-05-30T07:36:44.388Z,26.2
2019-05-30T07:37:47.802Z,26.2
2019-05-30T07:38:50.238Z,26.2
2019-05-30T07:39:52.106Z,26.2
2019-05-30T07:40:54.355Z,26.2
2019-05-30T07:43:01.760Z,26.2
2019-05-30T07:44:04.927Z,26.2
2019-05-30T07:45:07.069Z,26.2
2019-05-30T07:46:09.236Z,26.2
2019-05-30T07:47:11.422Z,26.3
2019-05-30T07:48:13.354Z,26.2
2019-05-30T07:49:15.790Z,26.2
2019-05-30T07:50:17.765Z,26.2
2019-05-30T07:51:19.916Z,26.3
2019-05-30T07:52:28.151Z,26.2
2019-05-30T07:53:33.308Z,26.2
2019-05-30T07:54:36.959Z,26.2
2019-05-30T07:55:40.709Z,26.3
2019-05-30T07:56:42.869Z,26.3
2019-05-30T07:57:45.020Z,26.2
2019-05-30T07:58:47.461Z,26.3
2019-05-30T07:59:49.900Z,26.2
2019-05-30T08:00:52.320Z,26.2
2019-05-30T08:01:54.953Z,26.2
2019-05-30T08:02:57.127Z,26.2
2019-05-30T08:03:59.595Z,26.2
2019-05-30T08:05:02.237Z,26.2
2019-05-30T08:06:05.088Z,26.2
2019-05-30T08:07:08.032Z,26.2
2019-05-30T08:08:10.841Z,26.2
2019-05-30T08:09:13.871Z,26.2
2019-05-30T08:10:16.489Z,26.2
2019-05-30T08:11:18.871Z,26.2
2019-05-30T08:12:21.377Z,26.2
2019-05-30T08:13:23.827Z,26.2
2019-05-30T08:14:27.451Z,26.2
2019-05-30T08:15:31.896Z,26.2
2019-05-30T08:16:38.057Z,26.2
2019-05-30T08:18:46.985Z,26.2
2019-05-30T08:19:50.005Z,26.2
2019-05-30T08:20:52.920Z,26.2
2019-05-30T08:21:55.674Z,26.2
2019-05-30T08:22:57.562Z,26.2
2019-05-30T08:24:00.006Z,26.2
2019-05-30T08:25:02.452Z,26.2
2019-05-30T08:26:04.607Z,26.2
2019-05-30T08:27:07.036Z,26.2
2019-05-30T08:28:09.474Z,26.2
2019-05-30T08:29:11.344Z,26.2
2019-05-30T08:30:13.805Z,26.2
2019-05-30T08:31:16.233Z,26.2
2019-05-30T08:32:19.482Z,26.2
2019-05-30T08:33:23.029Z,26.2
2019-05-30T08:34:25.915Z,26.2
2019-05-30T08:36:34.909Z,26.2
2019-05-30T08:37:39.876Z,26.2
2019-05-30T08:38:42.307Z,26.2
2019-05-30T08:39:44.747Z,26.2
2019-05-30T08:40:47.180Z,26.2
2019-05-30T08:41:49.372Z,26.2
2019-05-30T08:42:51.560Z,26.2
2019-05-30T08:43:53.980Z,26.2
2019-05-30T08:44:56.413Z,26.2
2019-05-30T08:45:58.893Z,26.2
2019-05-30T08:47:01.111Z,26.2
2019-05-30T08:48:03.887Z,26.2
2019-05-30T08:49:06.040Z,26.2
2019-05-30T08:50:09.019Z,26.2
2019-05-30T08:51:11.142Z,26.2
2019-05-30T08:52:13.584Z,26.2
2019-05-30T08:53:15.748Z,26.2
2019-05-30T08:54:18.182Z,26.2
2019-05-30T08:55:20.616Z,26.2
2019-05-30T08:56:22.510Z,26.2
2019-05-30T08:57:24.664Z,26.2
2019-05-30T08:58:27.111Z,26.2
2019-05-30T08:59:30.249Z,26.2
2019-05-30T09:00:33.022Z,26.2
2019-05-30T09:01:38.122Z,26.2
2019-05-30T09:02:46.908Z,26.2
2019-05-30T09:03:49.738Z,26.2
2019-05-30T09:04:51.892Z,26.2
2019-05-30T09:06:59.009Z,26.2
2019-05-30T09:08:01.171Z,26.2
2019-05-30T09:09:04.508Z,26.2
2019-05-30T09:10:06.834Z,26.3
2019-05-30T09:11:09.020Z,26.3
2019-05-30T09:12:11.467Z,26.3
2019-05-30T09:13:13.633Z,26.3
2019-05-30T09:14:16.076Z,26.3
2019-05-30T09:16:23.568Z,26.3
2019-05-30T09:17:25.455Z,26.2
2019-05-30T09:18:27.926Z,26.3
2019-05-30T09:19:30.357Z,26.3
2019-05-30T09:20:33.019Z,26.2
2019-05-30T09:21:35.460Z,26.3
2019-05-30T09:22:45.494Z,26.2
2019-05-30T09:23:48.969Z,26.3
2019-05-30T09:24:51.456Z,26.3
2019-05-30T09:25:53.592Z,26.3
2019-05-30T09:26:56.020Z,26.3
2019-05-30T09:27:59.014Z,26.3
2019-05-30T09:30:06.467Z,26.3
2019-05-30T09:31:08.896Z,26.3
2019-05-30T09:32:11.343Z,26.3
2019-05-30T09:33:13.846Z,26.3
2019-05-30T09:34:16.256Z,26.3
2019-05-30T09:35:18.705Z,26.3
2019-05-30T09:36:20.837Z,26.3
2019-05-30T09:37:23.156Z,26.3
2019-05-30T09:38:25.597Z,26.3
2019-05-30T09:40:32.863Z,26.3
2019-05-30T09:41:36.188Z,26.3
2019-05-30T09:43:48.092Z,26.3
2019-05-30T09:44:53.184Z,26.3
2019-05-30T09:45:55.323Z,26.3
2019-05-30T09:46:57.758Z,26.3
2019-05-30T09:47:59.986Z,26.2
2019-05-30T09:49:02.144Z,26.2
2019-05-30T09:50:05.060Z,26.3
2019-05-30T09:51:08.048Z,26.2
2019-05-30T09:52:10.477Z,26.2
2019-05-30T09:53:12.639Z,26.2
2019-05-30T09:54:15.098Z,26.2
2019-05-30T09:55:17.265Z,26.2
2019-05-30T09:56:19.684Z,26.2
2019-05-30T09:57:22.123Z,26.2
2019-05-30T09:58:24.545Z,26.2
2019-05-30T09:59:26.695Z,26.2
2019-05-30T10:00:28.852Z,26.2
2019-05-30T10:01:31.011Z,26.3
2019-05-30T10:02:33.184Z,26.2
2019-05-30T10:03:35.740Z,26.2
2019-05-30T10:04:37.652Z,26.2
2019-05-30T10:05:39.568Z,26.2
2019-05-30T10:06:44.686Z,26.2
2019-05-30T10:07:50.793Z,26.2
2019-05-30T10:08:54.435Z,26.2
2019-05-30T10:09:56.862Z,26.3
2019-05-30T10:10:59.593Z,26.3
2019-05-30T10:12:02.025Z,26.2
2019-05-30T10:13:04.186Z,26.2
2019-05-30T10:14:06.347Z,26.2
2019-05-30T10:15:08.775Z,26.3
2019-05-30T10:16:11.210Z,26.2
2019-05-30T10:17:13.373Z,26.2
2019-05-30T10:18:15.864Z,26.3
2019-05-30T10:19:18.307Z,26.3
2019-05-30T10:20:20.740Z,26.2
2019-05-30T10:21:22.918Z,26.2
2019-05-30T10:22:25.342Z,26.2
2019-05-30T10:23:28.146Z,26.2
2019-05-30T10:24:30.588Z,26.2
2019-05-30T10:25:32.905Z,26.2
2019-05-30T10:26:35.073Z,26.2
2019-05-30T10:27:37.254Z,26.2
2019-05-30T10:28:39.414Z,26.2
2019-05-30T10:29:41.608Z,26.2
2019-05-30T10:30:45.029Z,26.2
2019-05-30T10:31:50.586Z,26.2
2019-05-30T10:32:56.351Z,26.2
2019-05-30T10:33:58.787Z,26.2
2019-05-30T10:35:01.227Z,26.2
2019-05-30T10:36:03.382Z,26.2
2019-05-30T10:37:05.512Z,26.2
2019-05-30T10:38:07.684Z,26.2
2019-05-30T10:39:09.842Z,26.2
2019-05-30T10:40:12.263Z,26.2
2019-05-30T10:41:14.167Z,26.2
2019-05-30T10:42:16.339Z,26.2
2019-05-30T10:43:18.494Z,26.2
2019-05-30T10:44:20.655Z,26.2
2019-05-30T10:45:22.808Z,26.2
2019-05-30T10:46:25.236Z,26.2
2019-05-30T10:47:27.394Z,26.2
2019-05-30T10:48:29.563Z,26.2
2019-05-30T10:50:36.964Z,26.2
2019-05-30T10:51:40.001Z,26.2
2019-05-30T10:52:41.916Z,26.2
2019-05-30T10:53:45.436Z,26.2
2019-05-30T10:54:51.474Z,26.2
2019-05-30T10:55:56.967Z,26.2
2019-05-30T10:56:58.856Z,26.2
2019-05-30T10:58:01.018Z,26.2
2019-05-30T10:59:03.638Z,26.2
2019-05-30T11:01:11.725Z,26.2
2019-05-30T11:02:13.901Z,26.2
2019-05-30T11:03:16.331Z,26.2
2019-05-30T11:04:18.484Z,26.2
2019-05-30T11:05:20.644Z,26.2
2019-05-30T11:06:22.785Z,26.2
2019-05-30T11:07:24.963Z,26.2
2019-05-30T11:08:26.866Z,26.2
2019-05-30T11:09:29.008Z,26.2
2019-05-30T11:10:30.892Z,26.2
2019-05-30T11:11:32.758Z,26.2
2019-05-30T11:12:35.182Z,26.2
2019-05-30T11:13:38.233Z,26.2
2019-05-30T11:14:40.601Z,26.2
2019-05-30T11:15:43.093Z,26.2
2019-05-30T11:16:45.473Z,26.2
2019-05-30T11:18:58.205Z,26.2
2019-05-30T11:20:00.649Z,26.2
2019-05-30T11:21:02.659Z,26.2
2019-05-30T11:22:04.824Z,26.2
2019-05-30T11:23:06.994Z,26.2
2019-05-30T11:24:09.440Z,26.2
2019-05-30T11:25:11.883Z,26.2
2019-05-30T11:26:14.236Z,26.2
2019-05-30T11:27:16.376Z,26.2
2019-05-30T11:28:18.527Z,26.2
2019-05-30T11:29:20.961Z,26.2
2019-05-30T11:30:23.398Z,26.2
2019-05-30T11:31:25.398Z,26.2
2019-05-30T11:32:26.985Z,26.2
2019-05-30T11:33:29.132Z,26.2
2019-05-30T11:34:31.563Z,26.2
2019-05-30T11:35:33.715Z,26.2
2019-05-30T11:36:35.610Z,26.2
2019-05-30T11:37:38.025Z,26.2
2019-05-30T11:38:39.896Z,26.2
2019-05-30T11:39:42.067Z,26.2
2019-05-30T11:40:43.923Z,26.2
2019-05-30T11:41:46.102Z,26.2
2019-05-30T11:42:49.758Z,26.2
2019-05-30T11:43:55.541Z,26.2
2019-05-30T11:45:00.900Z,26.2
2019-05-30T11:46:03.376Z,26.2
2019-05-30T11:47:05.544Z,26.2
2019-05-30T11:48:07.715Z,26.2
2019-05-30T11:49:10.146Z,26.2
2019-05-30T11:50:14.121Z,26.2
2019-05-30T11:51:16.270Z,26.2
2019-05-30T11:52:18.164Z,26.2
2019-05-30T11:53:20.585Z,26.2
2019-05-30T11:54:22.471Z,26.2
2019-05-30T11:55:24.637Z,26.2
2019-05-30T11:56:28.216Z,26.2
2019-05-30T11:57:30.212Z,26.2
2019-05-30T11:58:33.799Z,26.2
2019-05-30T11:59:35.952Z,26.2
2019-05-30T12:00:38.428Z,26.2
2019-05-30T12:01:40.610Z,26.2
2019-05-30T12:02:43.216Z,26.2
2019-05-30T12:03:46.253Z,26.2
2019-05-30T12:04:48.852Z,26.2
2019-05-30T12:05:55.035Z,26.2
2019-05-30T12:06:59.089Z,26.2
2019-05-30T12:08:02.585Z,26.2
2019-05-30T12:09:04.462Z,26.2
2019-05-30T12:10:06.892Z,26.2
2019-05-30T12:11:08.774Z,26.2
2019-05-30T12:12:10.939Z,26.2
2019-05-30T12:13:13.362Z,26.2
2019-05-30T12:14:15.788Z,26.2
2019-05-30T12:15:18.153Z,26.2
2019-05-30T12:16:20.049Z,26.2
2019-05-30T12:17:22.194Z,26.2
2019-05-30T12:18:24.634Z,26.2
2019-05-30T12:19:27.087Z,26.2
2019-05-30T12:20:29.244Z,26.2
2019-05-30T12:21:31.707Z,26.2
2019-05-30T12:22:34.144Z,26.2
2019-05-30T12:23:36.008Z,26.2
2019-05-30T12:24:38.491Z,26.2
2019-05-30T12:25:40.950Z,26.2
2019-05-30T12:26:43.367Z,26.2
2019-05-30T12:27:45.789Z,26.2
2019-05-30T12:28:47.991Z,26.2
2019-05-30T12:29:50.430Z,26.2
2019-05-30T12:33:04.176Z,26.2
2019-05-30T12:34:06.614Z,26.2
2019-05-30T12:35:09.045Z,26.2
2019-05-30T12:36:11.470Z,26.2
2019-05-30T12:37:13.918Z,26.2
2019-05-30T12:38:16.045Z,26.2
2019-05-30T12:39:18.180Z,26.2
2019-05-30T12:40:20.620Z,26.2
2019-05-30T12:41:22.745Z,26.2
2019-05-30T12:42:24.910Z,26.2
2019-05-30T12:43:27.370Z,26.2
2019-05-30T12:44:29.794Z,26.2
2019-05-30T12:45:32.805Z,26.2
2019-05-30T12:46:35.246Z,26.2
2019-05-30T12:47:37.408Z,26.2
2019-05-30T12:48:39.026Z,26.2
2019-05-30T12:49:41.457Z,26.2
2019-05-30T12:50:43.875Z,26.2
2019-05-30T12:51:46.291Z,26.2
2019-05-30T12:52:48.613Z,26.2
2019-05-30T12:53:50.512Z,26.2
2019-05-30T12:54:54.370Z,26.2
2019-05-30T12:55:59.001Z,26.2
2019-05-30T12:57:03.929Z,26.2
2019-05-30T12:58:05.511Z,26.2
2019-05-30T12:59:08.988Z,26.3
2019-05-30T13:01:16.172Z,26.3
2019-05-30T13:02:19.086Z,26.3
2019-05-30T13:03:21.250Z,26.3
2019-05-30T13:04:23.408Z,26.3
2019-05-30T13:05:26.459Z,26.3
2019-05-30T13:06:28.882Z,26.3
2019-05-30T13:07:31.045Z,26.3
2019-05-30T13:08:33.467Z,26.3
2019-05-30T13:09:35.905Z,26.3
2019-05-30T13:10:37.807Z,26.3
2019-05-30T13:11:40.244Z,26.3
2019-05-30T13:12:42.404Z,26.3
2019-05-30T13:13:44.575Z,26.3
2019-05-30T13:14:47.007Z,26.3
2019-05-30T13:15:49.453Z,26.3
2019-05-30T13:16:51.620Z,26.3
2019-05-30T13:17:57.276Z,26.3
2019-05-30T13:19:02.192Z,26.3
2019-05-30T13:20:08.786Z,26.3
2019-05-30T13:21:10.935Z,26.3
2019-05-30T13:22:13.366Z,26.3
2019-05-30T13:23:15.791Z,26.3
2019-05-30T13:24:17.685Z,26.3
2019-05-30T13:25:19.594Z,26.3
2019-05-30T13:26:22.015Z,26.3
2019-05-30T13:27:24.732Z,26.3
2019-05-30T13:28:26.887Z,26.3
2019-05-30T13:29:29.322Z,26.3
2019-05-30T13:30:31.922Z,26.3
2019-05-30T13:31:34.363Z,26.3
2019-05-30T13:32:36.525Z,26.3
2019-05-30T13:33:39.689Z,26.3
2019-05-30T13:34:41.305Z,26.3
2019-05-30T13:35:43.470Z,26.3
2019-05-30T13:36:45.628Z,26.3
2019-05-30T13:37:47.794Z,26.3
2019-05-30T13:38:49.946Z,26.3
2019-05-30T13:39:52.138Z,26.3
2019-05-30T13:40:54.282Z,26.3
2019-05-30T13:41:55.875Z,26.3
2019-05-30T13:43:01.791Z,26.3
2019-05-30T13:45:10.205Z,26.3
2019-05-30T13:46:12.424Z,26.3
2019-05-30T13:47:14.847Z,26.3
2019-05-30T13:48:17.009Z,26.3
2019-05-30T13:49:19.174Z,26.3
2019-05-30T13:50:21.335Z,26.3
2019-05-30T13:51:23.514Z,26.3
2019-05-30T13:52:25.652Z,26.3
2019-05-30T13:53:27.807Z,26.3
2019-05-30T13:54:30.136Z,26.3
2019-05-30T13:55:33.184Z,26.3
2019-05-30T13:56:35.617Z,26.3
2019-05-30T13:57:38.039Z,26.3
2019-05-30T13:58:39.922Z,26.3
2019-05-30T13:59:42.074Z,26.3
2019-05-30T14:00:44.499Z,26.3
2019-05-30T14:01:46.655Z,26.3
2019-05-30T14:02:49.438Z,26.3
2019-05-30T14:03:51.876Z,26.3
2019-05-30T14:04:54.303Z,26.3
2019-05-30T14:05:56.436Z,26.3
2019-05-30T14:06:59.955Z,26.3
2019-05-30T14:09:10.450Z,26.3
2019-05-30T14:10:13.534Z,26.3
2019-05-30T14:11:15.976Z,26.3
2019-05-30T14:12:18.458Z,26.3
2019-05-30T14:13:21.295Z,26.3
2019-05-30T14:14:23.765Z,26.3
2019-05-30T14:15:25.921Z,26.3
2019-05-30T14:16:28.355Z,26.3
2019-05-30T14:17:30.506Z,26.3
2019-05-30T14:18:32.649Z,26.3
2019-05-30T14:19:35.006Z,26.3
2019-05-30T14:20:37.431Z,26.3
2019-05-30T14:21:39.850Z,26.3
2019-05-30T14:22:42.834Z,26.3
2019-05-30T14:23:45.258Z,26.3
2019-05-30T14:24:47.428Z,26.3
2019-05-30T14:25:49.850Z,26.3
2019-05-30T14:26:52.277Z,26.3
2019-05-30T14:27:54.718Z,26.3
2019-05-30T14:28:57.332Z,26.3
2019-05-30T14:29:59.762Z,26.3
2019-05-30T14:31:06.682Z,26.3
2019-05-30T14:32:11.996Z,26.3
2019-05-30T14:33:14.460Z,26.3